Terminal Aerodrome Forecast
Issued by NWS Charleston, SC

Home | Current Version | Previous Version | Text Only | Print | Product List | Glossary On
Versions: 1 2 3 4 5 6 7 8 9 10 11 12 13 14 15 16 17 18 19 20 21 22
000
FTUS42 KCHS 231124
TAFCHS
TAF
KCHS 231124Z 2312/2412 04007KT P6SM VCSH SCT050 BKN250
     FM231900 03007KT P6SM OVC035
      TEMPO 2320/2324 6SM -SHRA BR OVC025
     FM240100 04008KT P6SM OVC035=

USA.gov is the U.S. government's official web portal to all federal, state and local government web resources and services.